createdAt,value
2017-12-06T00:00:33.555Z,979.49
2017-12-06T00:01:43.542Z,979.5
2017-12-06T00:02:53.262Z,979.44
2017-12-06T00:04:03.242Z,979.46
2017-12-06T00:05:13.229Z,979.41
2017-12-06T00:06:23.211Z,979.36
2017-12-06T00:07:32.930Z,979.39
2017-12-06T00:08:42.914Z,979.4
2017-12-06T00:09:52.903Z,979.39
2017-12-06T00:11:02.624Z,979.39
2017-12-06T00:12:12.610Z,979.35
2017-12-06T00:13:22.598Z,979.35
2017-12-06T00:14:32.578Z,979.35
2017-12-06T00:15:42.294Z,979.38
2017-12-06T00:16:52.284Z,979.34
2017-12-06T00:18:02.272Z,979.34
2017-12-06T00:19:11.728Z,979.36
2017-12-06T00:20:21.718Z,979.39
2017-12-06T00:21:31.710Z,979.4
2017-12-06T00:22:41.691Z,979.44
2017-12-06T00:23:51.410Z,979.4
2017-12-06T00:25:01.393Z,979.43
2017-12-06T00:26:11.110Z,979.43
2017-12-06T00:27:21.098Z,979.4
2017-12-06T00:28:30.551Z,979.4
2017-12-06T00:29:40.535Z,979.42
2017-12-06T00:30:50.254Z,979.43
2017-12-06T00:32:00.238Z,979.45
2017-12-06T00:33:09.956Z,979.49
2017-12-06T00:34:19.944Z,979.43
2017-12-06T00:35:29.928Z,979.48
2017-12-06T00:36:39.913Z,979.4
2017-12-06T00:37:49.894Z,979.41
2017-12-06T00:38:59.874Z,979.44
2017-12-06T00:40:09.858Z,979.45
2017-12-06T00:41:19.851Z,979.48
2017-12-06T00:42:29.840Z,979.5
2017-12-06T00:43:39.554Z,979.51
2017-12-06T00:44:49.279Z,979.51
2017-12-06T00:45:58.997Z,979.5
2017-12-06T00:47:08.715Z,979.48
2017-12-06T00:48:18.485Z,979.47
2017-12-06T00:49:28.465Z,979.54
2017-12-06T00:50:38.457Z,979.48
2017-12-06T00:51:48.442Z,979.5
2017-12-06T00:52:57.890Z,979.49
2017-12-06T00:54:07.878Z,979.49
2017-12-06T00:55:17.857Z,979.51
2017-12-06T00:56:27.842Z,979.5
2017-12-06T00:57:37.834Z,979.49
2017-12-06T00:58:47.822Z,979.45
2017-12-06T00:59:57.805Z,979.46
2017-12-06T01:01:07.528Z,979.45
2017-12-06T01:02:17.509Z,979.44
2017-12-06T01:03:27.490Z,979.42
2017-12-06T01:04:37.473Z,979.42
2017-12-06T01:05:47.456Z,979.38
2017-12-06T01:06:57.443Z,979.41
2017-12-06T01:08:07.435Z,979.41
2017-12-06T01:09:17.422Z,979.4
2017-12-06T01:10:27.134Z,979.37
2017-12-06T01:11:37.130Z,979.35
2017-12-06T01:12:47.118Z,979.34
2017-12-06T01:13:57.105Z,979.32
2017-12-06T01:15:07.090Z,979.31
2017-12-06T01:16:17.075Z,979.26
2017-12-06T01:17:27.058Z,979.28
2017-12-06T01:18:37.039Z,979.24
2017-12-06T01:19:46.764Z,979.22
2017-12-06T01:20:56.744Z,979.21
2017-12-06T01:22:06.202Z,979.23
2017-12-06T01:23:16.318Z,979.22
2017-12-06T01:24:25.769Z,979.2
2017-12-06T01:25:35.749Z,979.18
2017-12-06T01:26:45.732Z,979.18
2017-12-06T01:27:55.716Z,979.18
2017-12-06T01:29:05.431Z,979.19
2017-12-06T01:30:15.421Z,979.18
2017-12-06T01:31:25.409Z,979.16
2017-12-06T01:32:35.394Z,979.2
2017-12-06T01:33:45.377Z,979.18
2017-12-06T01:34:55.096Z,979.19
2017-12-06T01:36:05.078Z,979.2
2017-12-06T01:37:14.799Z,979.22
2017-12-06T01:38:24.779Z,979.13
2017-12-06T01:39:34.826Z,979.08
2017-12-06T01:40:44.812Z,979.05
2017-12-06T01:41:54.805Z,979
2017-12-06T01:43:04.795Z,979.02
2017-12-06T01:44:14.836Z,979.03
2017-12-06T01:45:24.822Z,979.04
2017-12-06T01:46:34.804Z,979.06
2017-12-06T01:47:44.521Z,979.05
2017-12-06T01:48:54.513Z,979.06
2017-12-06T01:50:04.492Z,979.09
2017-12-06T01:51:14.475Z,979.1
2017-12-06T01:52:24.248Z,979.07
2017-12-06T01:53:34.528Z,979.07
2017-12-06T01:54:44.511Z,979.09
2017-12-06T01:55:54.497Z,979.09
2017-12-06T01:57:04.484Z,979.06
2017-12-06T01:58:14.466Z,979.04
2017-12-06T01:59:24.444Z,979.03
2017-12-06T02:00:34.426Z,979.06
2017-12-06T02:01:44.416Z,979.02
2017-12-06T02:02:54.398Z,979.06
2017-12-06T02:04:04.382Z,979.09
2017-12-06T02:05:13.832Z,979.09
2017-12-06T02:06:23.824Z,979.03
2017-12-06T02:07:33.544Z,979.02
2017-12-06T02:08:43.524Z,979.03
2017-12-06T02:09:53.516Z,979.08
2017-12-06T02:11:03.240Z,979.07
2017-12-06T02:12:13.230Z,979.1
2017-12-06T02:13:23.217Z,979.11
2017-12-06T02:14:32.938Z,979.13
2017-12-06T02:15:42.923Z,979.13
2017-12-06T02:16:52.645Z,979.05
2017-12-06T02:18:02.641Z,979.09
2017-12-06T02:19:12.364Z,979.05
2017-12-06T02:20:22.347Z,979.02
2017-12-06T02:21:31.803Z,979.06
2017-12-06T02:22:41.838Z,979.05
2017-12-06T02:23:51.556Z,979.01
2017-12-06T02:25:01.273Z,979
2017-12-06T02:26:10.997Z,978.94
2017-12-06T02:27:20.987Z,978.95
2017-12-06T02:28:30.988Z,978.96
2017-12-06T02:29:41.028Z,978.93
2017-12-06T02:30:50.747Z,978.95
2017-12-06T02:32:00.785Z,978.99
2017-12-06T02:33:10.516Z,978.99
2017-12-06T02:34:20.236Z,979.01
2017-12-06T02:35:30.273Z,979.01
2017-12-06T02:36:40.266Z,979.01
2017-12-06T02:37:50.007Z,978.98
2017-12-06T02:38:59.998Z,978.92
2017-12-06T02:40:10.018Z,978.87
2017-12-06T02:41:20.010Z,978.86
2017-12-06T02:42:30.066Z,978.87
2017-12-06T02:43:39.785Z,978.87
2017-12-06T02:44:49.785Z,978.84
2017-12-06T02:45:59.258Z,978.83
2017-12-06T02:47:09.241Z,978.79
2017-12-06T02:48:19.232Z,978.8
2017-12-06T02:49:29.214Z,978.79
2017-12-06T02:50:38.933Z,978.83
2017-12-06T02:51:48.647Z,978.81
2017-12-06T02:52:58.636Z,978.81
2017-12-06T02:54:08.633Z,978.72
2017-12-06T02:55:18.632Z,978.76
2017-12-06T02:56:28.616Z,978.74
2017-12-06T02:57:38.608Z,978.82
2017-12-06T02:58:48.596Z,978.76
2017-12-06T02:59:58.582Z,978.75
2017-12-06T03:01:08.316Z,978.76
2017-12-06T03:02:18.349Z,978.79
2017-12-06T03:03:28.066Z,978.79
2017-12-06T03:04:38.051Z,978.8
2017-12-06T03:05:48.033Z,978.79
2017-12-06T03:06:57.752Z,978.76
2017-12-06T03:08:07.468Z,978.73
2017-12-06T03:09:17.337Z,978.71
2017-12-06T03:10:27.325Z,978.68
2017-12-06T03:11:37.305Z,978.66
2017-12-06T03:12:47.025Z,978.66
2017-12-06T03:13:57.016Z,978.67
2017-12-06T03:15:06.731Z,978.63
2017-12-06T03:16:16.447Z,978.56
2017-12-06T03:17:26.162Z,978.55
2017-12-06T03:18:36.146Z,978.55
2017-12-06T03:19:45.866Z,978.59
2017-12-06T03:20:55.857Z,978.56
2017-12-06T03:22:05.878Z,978.52
2017-12-06T03:23:15.599Z,978.52
2017-12-06T03:24:25.319Z,978.46
2017-12-06T03:25:35.301Z,978.43
2017-12-06T03:26:45.015Z,978.44
2017-12-06T03:27:55.003Z,978.42
2017-12-06T03:29:04.715Z,978.39
2017-12-06T03:30:14.698Z,978.34
2017-12-06T03:31:24.712Z,978.34
2017-12-06T03:32:34.693Z,978.31
2017-12-06T03:33:44.677Z,978.27
2017-12-06T03:34:54.662Z,978.3
2017-12-06T03:36:04.436Z,978.29
2017-12-06T03:37:14.423Z,978.31
2017-12-06T03:38:24.450Z,978.34
2017-12-06T03:39:34.434Z,978.34
2017-12-06T03:40:44.414Z,978.34
2017-12-06T03:41:54.396Z,978.3
2017-12-06T03:43:04.381Z,978.31
2017-12-06T03:44:14.371Z,978.32
2017-12-06T03:45:24.354Z,978.31
2017-12-06T03:46:34.125Z,978.29
2017-12-06T03:47:44.111Z,978.29
2017-12-06T03:48:54.099Z,978.29
2017-12-06T03:50:04.081Z,978.24
2017-12-06T03:51:14.059Z,978.25
2017-12-06T03:52:24.120Z,978.3
2017-12-06T03:53:34.107Z,978.28
2017-12-06T03:54:44.097Z,978.25
2017-12-06T03:55:53.814Z,978.25
2017-12-06T03:57:03.796Z,978.24
2017-12-06T03:58:13.777Z,978.23
2017-12-06T03:59:23.756Z,978.22
2017-12-06T04:04:32.100Z,978.19
2017-12-06T04:05:42.098Z,978.17
2017-12-06T04:06:52.088Z,978.18
2017-12-06T04:08:01.805Z,978.2
2017-12-06T04:09:11.787Z,978.17
2017-12-06T04:10:21.242Z,978.24
2017-12-06T04:11:31.229Z,978.23
2017-12-06T04:12:40.953Z,978.18
2017-12-06T04:13:50.670Z,978.22
2017-12-06T04:15:00.651Z,978.27
2017-12-06T04:16:10.364Z,978.22
2017-12-06T04:17:20.347Z,978.25
2017-12-06T04:18:29.804Z,978.22
2017-12-06T04:19:39.529Z,978.19
2017-12-06T04:20:48.984Z,978.23
2017-12-06T04:21:58.702Z,978.28
2017-12-06T04:23:08.701Z,978.27
2017-12-06T04:24:18.423Z,978.28
2017-12-06T04:25:28.149Z,978.24
2017-12-06T04:26:38.130Z,978.29
2017-12-06T04:27:47.847Z,978.28
2017-12-06T04:28:57.569Z,978.27
2017-12-06T04:30:07.553Z,978.28
2017-12-06T04:31:17.535Z,978.27
2017-12-06T04:32:27.518Z,978.26
2017-12-06T04:33:37.503Z,978.3
2017-12-06T04:34:47.230Z,978.28
2017-12-06T04:35:57.217Z,978.25
2017-12-06T04:37:06.940Z,978.26
2017-12-06T04:38:16.917Z,978.29
2017-12-06T04:39:26.634Z,978.27
2017-12-06T04:40:36.619Z,978.26
2017-12-06T04:41:46.603Z,978.23
2017-12-06T04:42:56.329Z,978.25
2017-12-06T04:44:06.057Z,978.27
2017-12-06T04:45:16.103Z,978.29
2017-12-06T04:46:26.090Z,978.27
2017-12-06T04:47:36.084Z,978.29
2017-12-06T04:48:46.065Z,978.28
2017-12-06T04:49:56.055Z,978.29
2017-12-06T04:51:06.037Z,978.33
2017-12-06T04:52:16.045Z,978.34
2017-12-06T04:53:26.029Z,978.31
2017-12-06T04:54:35.215Z,978.31
2017-12-06T04:55:45.201Z,978.29
2017-12-06T04:56:55.182Z,978.27
2017-12-06T04:58:05.163Z,978.28
2017-12-06T04:59:14.883Z,978.24
2017-12-06T05:00:24.597Z,978.28
2017-12-06T05:01:34.575Z,978.24
2017-12-06T05:02:44.291Z,978.23
2017-12-06T05:03:54.274Z,978.19
2017-12-06T05:05:03.994Z,978.19
2017-12-06T05:06:13.979Z,978.16
2017-12-06T05:07:23.961Z,978.21
2017-12-06T05:08:33.943Z,978.16
2017-12-06T05:09:43.930Z,978.16
2017-12-06T05:10:53.657Z,978.16
2017-12-06T05:12:03.636Z,978.23
2017-12-06T05:13:13.620Z,978.26
2017-12-06T05:14:23.344Z,978.31
2017-12-06T05:15:33.334Z,978.27
2017-12-06T05:16:43.328Z,978.33
2017-12-06T05:17:53.308Z,978.28
2017-12-06T05:19:03.294Z,978.21
2017-12-06T05:20:13.274Z,978.23
2017-12-06T05:21:23.256Z,978.17
2017-12-06T05:22:33.241Z,978.18
2017-12-06T05:23:43.225Z,978.2
2017-12-06T05:24:52.955Z,978.2
2017-12-06T05:26:02.938Z,978.19
2017-12-06T05:27:12.660Z,978.16
2017-12-06T05:28:22.644Z,978.12
2017-12-06T05:29:32.636Z,978.13
2017-12-06T05:30:42.625Z,978.18
2017-12-06T05:31:52.609Z,978.2
2017-12-06T05:33:02.644Z,978.16
2017-12-06T05:34:12.630Z,978.13
2017-12-06T05:35:22.342Z,978.06
2017-12-06T05:36:32.336Z,978.11
2017-12-06T05:37:42.335Z,978.1
2017-12-06T05:38:52.322Z,978.13
2017-12-06T05:40:02.308Z,978.12
2017-12-06T05:41:12.293Z,978.08
2017-12-06T05:42:24.277Z,978.17
2017-12-06T05:43:34.269Z,978.26
2017-12-06T05:44:44.263Z,978.26
2017-12-06T05:45:54.248Z,978.26
2017-12-06T05:47:03.971Z,978.3
2017-12-06T05:48:13.957Z,978.28
2017-12-06T05:49:23.935Z,978.25
2017-12-06T05:50:33.946Z,978.24
2017-12-06T05:51:43.928Z,978.3
2017-12-06T05:52:53.909Z,978.36
2017-12-06T05:54:03.629Z,978.38
2017-12-06T05:55:13.344Z,978.41
2017-12-06T05:56:23.321Z,978.45
2017-12-06T05:57:33.312Z,978.46
2017-12-06T05:58:43.296Z,978.46
2017-12-06T05:59:53.279Z,978.39
2017-12-06T06:01:02.727Z,978.38
2017-12-06T06:02:12.445Z,978.39
2017-12-06T06:03:22.437Z,978.35
2017-12-06T06:04:32.431Z,978.35
2017-12-06T06:05:42.418Z,978.37
2017-12-06T06:06:52.144Z,978.31
2017-12-06T06:08:01.596Z,978.28
2017-12-06T06:09:11.348Z,978.26
2017-12-06T06:10:21.070Z,978.26
2017-12-06T06:11:31.905Z,978.25
2017-12-06T06:12:41.893Z,978.27
2017-12-06T06:13:51.610Z,978.25
2017-12-06T06:15:01.591Z,978.3
2017-12-06T06:16:11.570Z,978.24
2017-12-06T06:17:21.552Z,978.27
2017-12-06T06:18:31.539Z,978.28
2017-12-06T06:19:41.523Z,978.25
2017-12-06T06:20:51.502Z,978.22
2017-12-06T06:22:01.484Z,978.22
2017-12-06T06:23:11.521Z,978.27
2017-12-06T06:24:21.239Z,978.27
2017-12-06T06:25:31.228Z,978.31
2017-12-06T06:26:41.213Z,978.3
2017-12-06T06:27:50.932Z,978.25
2017-12-06T06:29:00.920Z,978.29
2017-12-06T06:30:10.907Z,978.33
2017-12-06T06:31:20.890Z,978.36
2017-12-06T06:32:30.342Z,978.41
2017-12-06T06:33:40.321Z,978.43
2017-12-06T06:34:50.042Z,978.46
2017-12-06T06:36:00.029Z,978.48
2017-12-06T06:37:09.746Z,978.43
2017-12-06T06:38:19.465Z,978.42
2017-12-06T06:39:29.179Z,978.39
2017-12-06T06:40:39.162Z,978.34
2017-12-06T06:41:48.879Z,978.27
2017-12-06T06:42:58.865Z,978.24
2017-12-06T06:44:08.582Z,978.24
2017-12-06T06:45:18.564Z,978.31
2017-12-06T06:46:28.283Z,978.28
2017-12-06T06:47:38.267Z,978.26
2017-12-06T06:48:48.257Z,978.21
2017-12-06T06:49:58.048Z,978.14
2017-12-06T06:51:07.765Z,978.16
2017-12-06T06:52:17.236Z,978.17
2017-12-06T06:53:27.242Z,978.18
2017-12-06T06:54:36.959Z,978.2
2017-12-06T06:55:46.672Z,978.15
2017-12-06T06:56:56.677Z,978.14
2017-12-06T06:58:06.448Z,978.19
2017-12-06T06:59:16.171Z,978.13
2017-12-06T07:00:25.890Z,978.13
2017-12-06T07:01:35.924Z,978.13
2017-12-06T07:02:45.903Z,978.26
2017-12-06T07:03:55.620Z,978.21
2017-12-06T07:05:05.398Z,978.26
2017-12-06T07:06:15.115Z,978.23
2017-12-06T07:07:24.830Z,978.28
2017-12-06T07:08:34.813Z,978.29
2017-12-06T07:09:47.019Z,978.29
2017-12-06T07:10:57.015Z,978.35
2017-12-06T07:12:07.000Z,978.39
2017-12-06T07:13:16.982Z,978.35
2017-12-06T07:14:26.697Z,978.31
2017-12-06T07:15:36.692Z,978.29
2017-12-06T07:16:46.675Z,978.26
2017-12-06T07:17:56.656Z,978.31
2017-12-06T07:19:06.640Z,978.29
2017-12-06T07:20:16.354Z,978.28
2017-12-06T07:21:26.343Z,978.3
2017-12-06T07:22:36.057Z,978.24
2017-12-06T07:23:45.778Z,978.21
2017-12-06T07:24:55.766Z,978.16
2017-12-06T07:26:05.556Z,978.16
2017-12-06T07:27:15.557Z,978.18
2017-12-06T07:28:25.273Z,978.15
2017-12-06T07:29:35.258Z,978.15
2017-12-06T07:30:45.237Z,978.14
2017-12-06T07:31:54.954Z,978.12
2017-12-06T07:33:04.936Z,978.1
2017-12-06T07:34:14.920Z,978.09
2017-12-06T07:35:24.646Z,978.14
2017-12-06T07:36:34.096Z,978.12
2017-12-06T07:37:44.081Z,978.16
2017-12-06T07:38:53.803Z,978.16
2017-12-06T07:40:03.831Z,978.13
2017-12-06T07:41:13.282Z,978.13
2017-12-06T07:42:23.273Z,978.14
2017-12-06T07:43:33.256Z,978.16
2017-12-06T07:44:43.242Z,978.09
2017-12-06T07:45:53.231Z,978.05
2017-12-06T07:47:02.947Z,978.08
2017-12-06T07:48:12.664Z,978.11
2017-12-06T07:49:22.409Z,978.11
2017-12-06T07:50:32.454Z,978.11
2017-12-06T07:51:42.169Z,978.05
2017-12-06T07:52:52.150Z,978.03
2017-12-06T07:54:02.133Z,978.02
2017-12-06T07:55:11.855Z,978.02
2017-12-06T07:56:21.837Z,978.01
2017-12-06T07:57:31.828Z,978.02
2017-12-06T07:58:41.545Z,978.04
2017-12-06T07:59:51.533Z,978.05
2017-12-06T08:01:00.986Z,978.06
2017-12-06T08:02:10.984Z,978.09
2017-12-06T08:03:20.704Z,978.09
2017-12-06T08:04:30.158Z,978.1
2017-12-06T08:05:40.150Z,978.11
2017-12-06T08:06:49.878Z,978.1
2017-12-06T08:07:59.860Z,978.07
2017-12-06T08:09:09.581Z,978.01
2017-12-06T08:10:19.562Z,978.03
2017-12-06T08:11:29.552Z,978.03
2017-12-06T08:12:39.279Z,978.08
2017-12-06T08:13:48.468Z,978.08
2017-12-06T08:14:58.459Z,978.09
2017-12-06T08:16:08.439Z,978.1
2017-12-06T08:17:18.423Z,978.1
2017-12-06T08:18:28.406Z,978.11
2017-12-06T08:19:38.394Z,978.15
2017-12-06T08:20:47.846Z,978.17
2017-12-06T08:21:57.296Z,978.17
2017-12-06T08:23:07.285Z,978.18
2017-12-06T08:24:17.272Z,978.14
2017-12-06T08:25:27.258Z,978.14
2017-12-06T08:26:37.241Z,978.14
2017-12-06T08:27:46.970Z,978.14
2017-12-06T08:28:56.686Z,978.16
2017-12-06T08:30:06.720Z,978.07
2017-12-06T08:31:16.219Z,977.98
2017-12-06T08:32:25.933Z,977.91
2017-12-06T08:33:35.655Z,977.88
2017-12-06T08:34:45.371Z,977.83
2017-12-06T08:35:55.090Z,977.81
2017-12-06T08:37:04.810Z,977.79
2017-12-06T08:38:14.527Z,977.72
2017-12-06T08:39:24.508Z,977.76
2017-12-06T08:40:34.490Z,977.77
2017-12-06T08:41:44.482Z,977.81
2017-12-06T08:42:54.468Z,977.82
2017-12-06T08:44:04.450Z,977.86
2017-12-06T08:45:14.437Z,977.88
2017-12-06T08:46:24.417Z,977.96
2017-12-06T08:47:34.399Z,978.05
2017-12-06T08:48:44.114Z,978.07
2017-12-06T08:49:53.833Z,978.11
2017-12-06T08:51:03.298Z,978.11
2017-12-06T08:52:13.281Z,978.16
2017-12-06T08:53:22.999Z,978.15
2017-12-06T08:54:32.984Z,978.17
2017-12-06T08:55:42.963Z,978.16
2017-12-06T08:56:52.958Z,978.17
2017-12-06T08:58:02.941Z,978.18
2017-12-06T08:59:12.922Z,978.28
2017-12-06T09:00:23.141Z,978.27
2017-12-06T09:01:33.126Z,978.28
2017-12-06T09:02:43.114Z,978.25
2017-12-06T09:03:52.564Z,978.18
2017-12-06T09:05:02.284Z,978.21
2017-12-06T09:06:12.049Z,978.17
2017-12-06T09:07:22.035Z,978.12
2017-12-06T09:08:31.756Z,978.09
2017-12-06T09:09:41.475Z,978.07
2017-12-06T09:10:51.454Z,978.09
2017-12-06T09:12:01.449Z,978.04
2017-12-06T09:13:11.174Z,978.04
2017-12-06T09:14:20.896Z,978.11
2017-12-06T09:15:30.879Z,978.12
2017-12-06T09:16:40.328Z,978.13
2017-12-06T09:17:50.061Z,978.16
2017-12-06T09:19:00.048Z,978.16
2017-12-06T09:20:10.025Z,978.17
2017-12-06T09:21:20.006Z,978.17
2017-12-06T09:22:29.994Z,978.1
2017-12-06T09:23:39.974Z,978.08
2017-12-06T09:24:49.694Z,978.09
2017-12-06T09:25:59.680Z,978.13
2017-12-06T09:27:09.661Z,978.11
2017-12-06T09:28:19.380Z,978.09
2017-12-06T09:29:29.093Z,978.07
2017-12-06T09:30:39.080Z,978.12
2017-12-06T09:31:48.795Z,978.14
2017-12-06T09:32:58.528Z,978.1
2017-12-06T09:34:08.244Z,978.13
2017-12-06T09:35:17.697Z,978.12
2017-12-06T09:36:27.414Z,978.1
2017-12-06T09:37:37.397Z,978.11
2017-12-06T09:38:47.380Z,978.06
2017-12-06T09:39:57.109Z,978.1
2017-12-06T09:41:07.096Z,978.08
2017-12-06T09:42:16.818Z,978.07
2017-12-06T09:43:26.795Z,978.03
2017-12-06T09:44:36.564Z,977.98
2017-12-06T09:45:46.033Z,977.93
2017-12-06T09:46:58.021Z,978
2017-12-06T09:48:08.006Z,978.03
2017-12-06T09:49:17.725Z,978.05
2017-12-06T09:50:27.440Z,978.03
2017-12-06T09:51:37.157Z,978.02
2017-12-06T09:52:47.136Z,978.05
2017-12-06T09:53:56.597Z,978.02
2017-12-06T09:55:06.583Z,978.05
2017-12-06T09:56:16.298Z,978.03
2017-12-06T09:57:25.750Z,978.06
2017-12-06T09:58:35.732Z,978.04
2017-12-06T09:59:45.184Z,978.04
2017-12-06T10:00:54.898Z,978.03
2017-12-06T10:02:04.918Z,978.04
2017-12-06T10:03:14.106Z,978.09
2017-12-06T10:04:23.827Z,978.12
2017-12-06T10:05:33.810Z,978.11
2017-12-06T10:06:43.558Z,978.11
2017-12-06T10:07:53.278Z,978.04
2017-12-06T10:09:03.259Z,978
2017-12-06T10:10:12.981Z,977.97
2017-12-06T10:11:23.038Z,977.92
2017-12-06T10:12:32.753Z,977.91
2017-12-06T10:13:42.474Z,977.86
2017-12-06T10:14:52.465Z,977.8
2017-12-06T10:16:02.454Z,977.78
2017-12-06T10:17:12.448Z,977.75
2017-12-06T10:18:22.428Z,977.71
2017-12-06T10:19:32.147Z,977.64
2017-12-06T10:20:42.135Z,977.64
2017-12-06T10:21:52.119Z,977.59
2017-12-06T10:23:02.111Z,977.57
2017-12-06T10:24:12.092Z,977.49
2017-12-06T10:25:21.815Z,977.51
2017-12-06T10:26:31.548Z,977.5
2017-12-06T10:27:41.263Z,977.53
2017-12-06T10:28:51.256Z,977.46
2017-12-06T10:30:01.239Z,977.49
2017-12-06T10:31:10.741Z,977.48
2017-12-06T10:32:20.733Z,977.52
2017-12-06T10:33:30.722Z,977.54
2017-12-06T10:34:40.438Z,977.54
2017-12-06T10:35:50.155Z,977.53
2017-12-06T10:36:59.956Z,977.57
2017-12-06T10:38:09.941Z,977.61
2017-12-06T10:39:19.660Z,977.61
2017-12-06T10:40:29.680Z,977.58
2017-12-06T10:41:39.662Z,977.61
2017-12-06T10:42:49.641Z,977.63
2017-12-06T10:43:59.632Z,977.56
2017-12-06T10:45:10.071Z,977.54
2017-12-06T10:46:19.793Z,977.51
2017-12-06T10:47:29.795Z,977.46
2017-12-06T10:48:39.785Z,977.36
2017-12-06T10:49:49.511Z,977.4
2017-12-06T10:50:59.498Z,977.39
2017-12-06T10:52:09.214Z,977.35
2017-12-06T10:53:19.230Z,977.37
2017-12-06T10:54:29.223Z,977.37
2017-12-06T10:55:38.940Z,977.34
2017-12-06T10:56:48.937Z,977.35
2017-12-06T10:57:58.962Z,977.34
2017-12-06T10:59:08.693Z,977.27
2017-12-06T11:00:18.412Z,977.26
2017-12-06T11:01:28.137Z,977.2
2017-12-06T11:02:37.592Z,977.22
2017-12-06T11:03:47.578Z,977.19
2017-12-06T11:04:57.568Z,977.14
2017-12-06T11:06:07.287Z,977.17
2017-12-06T11:07:17.006Z,977.19
2017-12-06T11:08:26.997Z,977.18
2017-12-06T11:09:36.727Z,977.19
2017-12-06T11:10:46.772Z,977.15
2017-12-06T11:11:56.226Z,977.14
2017-12-06T11:13:06.208Z,977.19
2017-12-06T11:14:16.211Z,977.24
2017-12-06T11:15:25.931Z,977.2
2017-12-06T11:16:35.926Z,977.2
2017-12-06T11:17:45.648Z,977.15
2017-12-06T11:18:55.106Z,977.06
2017-12-06T11:20:05.096Z,977.06
2017-12-06T11:21:14.552Z,977.03
2017-12-06T11:22:24.275Z,977.01
2017-12-06T11:23:34.260Z,977.01
2017-12-06T11:24:43.977Z,977.01
2017-12-06T11:25:54.206Z,977.04
2017-12-06T11:27:04.192Z,977.11
2017-12-06T11:28:14.183Z,977.13
2017-12-06T11:29:24.168Z,977.09
2017-12-06T11:30:34.161Z,977.08
2017-12-06T11:31:44.442Z,977.05
2017-12-06T11:32:53.899Z,977.01
2017-12-06T11:34:03.881Z,977.04
2017-12-06T11:35:13.866Z,977.06
2017-12-06T11:36:23.849Z,977.05
2017-12-06T11:37:33.832Z,977.02
2017-12-06T11:38:43.549Z,977
2017-12-06T11:39:53.268Z,977.01
2017-12-06T11:41:03.254Z,977.01
2017-12-06T11:42:13.239Z,976.95
2017-12-06T11:43:22.957Z,976.93
2017-12-06T11:44:32.939Z,976.9
2017-12-06T11:45:42.926Z,976.92
2017-12-06T11:46:52.907Z,976.9
2017-12-06T11:48:02.890Z,976.88
2017-12-06T11:49:12.342Z,976.9
2017-12-06T11:50:22.335Z,976.86
2017-12-06T11:51:32.313Z,976.84
2017-12-06T11:52:42.296Z,976.88
2017-12-06T11:53:52.292Z,976.9
2017-12-06T11:55:02.275Z,976.88
2017-12-06T11:56:12.266Z,976.88
2017-12-06T11:57:22.249Z,976.88
2017-12-06T11:58:31.700Z,976.88
2017-12-06T11:59:41.428Z,976.85
2017-12-06T12:00:51.145Z,976.87
2017-12-06T12:02:00.595Z,976.88
2017-12-06T12:03:10.316Z,976.89
2017-12-06T12:04:20.302Z,976.81
2017-12-06T12:05:30.291Z,976.83
2017-12-06T12:06:40.279Z,976.79
2017-12-06T12:07:50.006Z,976.84
2017-12-06T12:08:59.987Z,976.82
2017-12-06T12:10:09.972Z,976.82
2017-12-06T12:11:19.692Z,976.83
2017-12-06T12:12:29.412Z,976.81
2017-12-06T12:13:39.130Z,976.82
2017-12-06T12:14:49.113Z,976.77
2017-12-06T12:15:59.101Z,976.77
2017-12-06T12:17:08.820Z,976.78
2017-12-06T12:18:18.539Z,976.78
2017-12-06T12:19:28.522Z,976.79
2017-12-06T12:20:37.972Z,976.79
2017-12-06T12:21:47.697Z,976.8
2017-12-06T12:22:57.161Z,976.75
2017-12-06T12:24:07.148Z,976.74
2017-12-06T12:25:16.864Z,976.72
2017-12-06T12:26:26.847Z,976.73
2017-12-06T12:27:36.570Z,976.76
2017-12-06T12:28:46.293Z,976.7
2017-12-06T12:29:56.276Z,976.74
2017-12-06T12:31:05.995Z,976.75
2017-12-06T12:32:15.981Z,976.68
2017-12-06T12:33:25.962Z,976.69
2017-12-06T12:34:35.677Z,976.69
2017-12-06T12:35:45.664Z,976.63
2017-12-06T12:36:55.651Z,976.66
2017-12-06T12:38:05.637Z,976.64
2017-12-06T12:39:15.097Z,976.68
2017-12-06T12:40:25.133Z,976.67
2017-12-06T12:41:34.848Z,976.67
2017-12-06T12:42:44.828Z,976.66
2017-12-06T12:43:54.831Z,976.66
2017-12-06T12:45:04.565Z,976.67
2017-12-06T12:46:14.561Z,976.66
2017-12-06T12:47:24.596Z,976.64
2017-12-06T12:48:34.583Z,976.64
2017-12-06T12:49:44.301Z,976.66
2017-12-06T12:50:54.286Z,976.62
2017-12-06T12:52:04.272Z,976.6
2017-12-06T12:53:14.254Z,976.58
2017-12-06T12:54:24.274Z,976.52
2017-12-06T12:55:34.334Z,976.5
2017-12-06T12:56:44.048Z,976.42
2017-12-06T12:57:54.036Z,976.42
2017-12-06T12:59:03.830Z,976.44
2017-12-06T13:00:13.810Z,976.39
2017-12-06T13:01:23.795Z,976.37
2017-12-06T13:02:33.837Z,976.37
2017-12-06T13:03:43.551Z,976.34
2017-12-06T13:04:55.544Z,976.35
2017-12-06T13:06:05.316Z,976.32
2017-12-06T13:07:15.032Z,976.3
2017-12-06T13:08:25.017Z,976.26
2017-12-06T13:09:34.734Z,976.23
2017-12-06T13:10:44.717Z,976.18
2017-12-06T13:11:54.704Z,976.2
2017-12-06T13:13:04.444Z,976.15
2017-12-06T13:14:14.435Z,976.12
2017-12-06T13:15:23.636Z,976.1
2017-12-06T13:16:33.617Z,976.08
2017-12-06T13:17:43.336Z,976.03
2017-12-06T13:18:53.321Z,976.04
2017-12-06T13:20:03.036Z,976.07
2017-12-06T13:21:12.752Z,976.12
2017-12-06T13:22:22.733Z,976.14
2017-12-06T13:23:32.449Z,976.16
2017-12-06T13:24:42.436Z,976.13
2017-12-06T13:25:51.898Z,976.11
2017-12-06T13:27:01.885Z,976.16
2017-12-06T13:28:11.891Z,976.15
2017-12-06T13:29:21.611Z,976.16
2017-12-06T13:30:31.625Z,976.17
2017-12-06T13:31:41.618Z,976.14
2017-12-06T13:32:51.069Z,976.13
2017-12-06T13:34:01.066Z,976.08
2017-12-06T13:35:11.054Z,976.13
2017-12-06T13:36:20.775Z,976.09
2017-12-06T13:37:30.759Z,976.12
2017-12-06T13:38:40.742Z,976.16
2017-12-06T13:39:54.224Z,976.13
2017-12-06T13:41:03.943Z,976.17
2017-12-06T13:42:13.924Z,976.16
2017-12-06T13:43:23.919Z,976.21
2017-12-06T13:44:33.639Z,976.21
2017-12-06T13:45:43.635Z,976.22
2017-12-06T13:46:53.616Z,976.2
2017-12-06T13:48:03.332Z,976.18
2017-12-06T13:49:13.317Z,976.16
2017-12-06T13:50:22.775Z,976.11
2017-12-06T13:51:32.820Z,976.11
2017-12-06T13:52:42.803Z,976.07
2017-12-06T13:53:52.789Z,976.06
2017-12-06T13:55:02.774Z,976.05
2017-12-06T13:56:12.491Z,976.04
2017-12-06T13:57:22.482Z,976.02
2017-12-06T13:58:32.195Z,975.96
2017-12-06T13:59:42.178Z,975.96
2017-12-06T14:00:51.895Z,975.94
2017-12-06T14:02:01.882Z,975.92
2017-12-06T14:03:11.337Z,975.91
2017-12-06T14:04:21.322Z,975.87
2017-12-06T14:05:31.315Z,975.94
2017-12-06T14:06:41.314Z,975.87
2017-12-06T14:07:51.295Z,975.88
2017-12-06T14:09:01.283Z,975.93
2017-12-06T14:10:11.273Z,975.88
2017-12-06T14:11:21.263Z,975.88
2017-12-06T14:12:30.979Z,975.86
2017-12-06T14:13:40.971Z,975.82
2017-12-06T14:14:50.956Z,975.82
2017-12-06T14:16:00.941Z,975.8
2017-12-06T14:17:10.657Z,975.81
2017-12-06T14:18:20.374Z,975.77
2017-12-06T14:19:30.154Z,975.83
2017-12-06T14:20:40.169Z,975.83
2017-12-06T14:21:50.156Z,975.88
2017-12-06T14:23:00.141Z,975.85
2017-12-06T14:24:09.860Z,975.88
2017-12-06T14:25:19.913Z,975.91
2017-12-06T14:26:29.631Z,975.86
2017-12-06T14:27:39.349Z,975.88
2017-12-06T14:28:49.341Z,975.9
2017-12-06T14:29:59.329Z,975.91
2017-12-06T14:31:09.316Z,975.88
2017-12-06T14:32:19.301Z,975.85
2017-12-06T14:33:29.286Z,975.83
2017-12-06T14:34:39.293Z,975.82
2017-12-06T14:35:49.278Z,975.75
2017-12-06T14:36:59.261Z,975.7
2017-12-06T14:38:11.244Z,975.65